Have a Safe July 4th! 

Flight Track Log - Related Links

Times and Time Zones

All times are in EDT time to prevent confusion due to time zone crossing. See the N613BH flight status page for this flight to view local times or setup timezone preferences in your user account.

Time Position Orientation Groundspeed Altitude Reporting Facility
EDT Latitude Longitude Course Direction KTS MPH feet Rate Location/Type
Mon 03:34:00 PM 40.0863 -74.4036 332° Northwest  Level FlightAware Approximate
Mon 03:35:00 PM 40.1147 -74.4236 332° Northwest  Level FlightAware Approximate
Mon 03:35:54 PM 40.1167 -74.4167 323° Northwest 147 169 4,100  Level New York TRACON
Mon 03:36:00 PM 40.1432 -74.4435 332° Northwest  Level FlightAware Approximate
Mon 03:36:54 PM 40.1500 -74.4500 323° Northwest 147 169 4,000  Level New York TRACON
Mon 03:37:00 PM 40.1717 -74.4634 332° Northwest  Level FlightAware Approximate
Mon 03:37:53 PM 40.1833 -74.4833 323° Northwest 147 169 4,000  Level New York TRACON
Mon 03:38:00 PM 40.2001 -74.4835 315° West  Level FlightAware Approximate
Mon 03:38:53 PM 40.2167 -74.4667 21° North 137 158 4,000  Level New York TRACON
Mon 03:39:00 PM 40.2227 -74.5136 315° West  Level FlightAware Approximate
Mon 03:39:53 PM 40.2667 -74.4500 14° North 133 153 4,000  Level New York TRACON
Mon 03:40:00 PM 40.2453 -74.5438 314° West  Level FlightAware Approximate
Mon 03:41:00 PM 40.2590 -74.4962 258° West  Level FlightAware Approximate
Mon 03:41:00 PM 40.2704 -74.5704 323° Northwest  Level FlightAware Approximate
Mon 03:41:53 PM 40.3333 -74.4333 258° West 131 151 3,200  Level New York TRACON
Mon 03:43:00 PM 40.3655 -74.4120 323° Northwest  Level Estimated
Mon 03:44:48 PM 40.4333 -74.4000 58° Northeast 124 143 1,900  Level New York TRACON
Mon 03:45:53 PM 40.4667 -74.3833 21° North 109 125 2,000 92 Climbing New York TRACON
Mon 03:48:00 PM 40.5227 -74.3319 57° Northeast  Level Estimated
Mon 03:50:00 PM 40.4606 -74.5727 58° Northeast  Level FlightAware Approximate
Mon 03:55:00 PM 40.6167 -74.2333 57° Northeast  Level FlightAware Approximate
Mon 03:56:00 PM 40.6174 -74.2446 57° Northeast  Level Estimated
Mon 03:57:00 PM 40.6174 -74.2446 57° Northeast  Level Estimated
Mon 03:58:00 PM 40.6174 -74.2446 57° Northeast  Level Estimated
Mon 03:59:00 PM 40.6174 -74.2446 57° Northeast  Level Estimated

Login

Don't have an account? Register now (free) for customized features, flight alerts, and more!